Tiempo atmosférico en la estación meteorológica de Navalvillar De Pela, Badajoz (308 m.)



Fecha
DESCASC
Temp. máxima en grados centígrados (hora)
DESCASC
Temp. mínima en grados centígrados (hora)
DESCASC
Temp. media en grados centígrados
DESCASC
Racha de viento máxima en m/sg (hora)
DESCASC
Velocidad máxima media en intervalos de 10 minutos(hora)
DESCASC
Precipitaciones diarias en mm
DESCASC
Precipitaciones de 00:00 a 06:00 en mm
DESCASC
Precipitaciones de 06:00 a 12:00 en mm
DESCASC
Precipitaciones de 12:00 a 18:00 en mm
DESCASC
Precipitaciones de 18:00 a 24:00 en mm
DESCASC
14-12-2019 13.9 (14:50) 10.9 (08:00) 12.4 7.78 (01:20) 5 (12:10) 0 0 0 0 0
13-12-2019 16.8 (14:40) 11.2 (07:50) 14 14.44 (04:20) 8.61 (04:00) 0 0 0 0 0
12-12-2019 12.2 (23:50) 6 (06:30) 9.1 13.61 (21:50) 7.78 (20:40) 0 0 0 0 0
11-12-2019 12.7 (16:20) 4.9 (00:00) 8.8 11.67 (16:30) 7.78 (17:20) 0.6 0 0.6 0 0
10-12-2019 12.9 (16:20) 6.1 (00:00) 9.5 6.11 (07:40) 3.33 (07:10) 0 0 0 0 0
09-12-2019 12.6 (13:30) 8.4 (00:00) 10.5 5 (04:20) 2.78 (03:40) 0 0 0 0 0
08-12-2019 11.4 (16:40) 4.5 (00:00) 7.9 4.17 (03:10) 3.33 (03:10) 0.8 0 0 0.6 0.2
07-12-2019 15.7 (16:40) 4.2 (00:00) 9.9 5 (10:30) 3.33 (10:30) 0 0 0 0 0
06-12-2019 16.7 (16:10) 6.4 (00:00) 11.6 6.94 (12:00) 5 (12:40) 0 0 0 0 0
05-12-2019 15.8 (14:20) 6.5 (00:00) 11.2 9.44 (12:20) 6.67 (12:20) 0 0 0 0 0
04-12-2019 13.6 (14:50) 6.3 (00:00) 10 6.11 (02:50) 3.89 (02:00) 1.4 0 0 1 0.4
03-12-2019 15.3 (15:40) 7.7 (00:00) 11.5 10 (07:00) 7.5 (07:00) 0 0 0 0 0
02-12-2019 13.9 (14:30) 8.3 (00:00) 11.1 13.06 (16:00) 8.61 (16:00) 0.2 0.2 0 0 0
01-12-2019 13.9 (16:20) 9.3 (00:00) 11.6 10 (10:50) 5.28 (00:10) 2.2 0 1.4 0.6 0.2
30-11-2019 16.6 (15:40) 11 (00:00) 13.8 12.78 (20:30) 6.67 (20:30) 1.6 0 0 0 1.6
29-11-2019 17.7 (15:20) 13.1 (00:00) 15.4 6.94 (06:40) 3.89 (07:20) 0 0 0 0 0
28-11-2019 16.6 (14:20) 10.5 (00:00) 13.6 6.94 (04:50) 3.89 (04:50) 0 0 0 0 0
27-11-2019 16.2 (14:40) 11.1 (00:00) 13.7 11.67 (03:10) 6.67 (02:30) 0.2 0.2 0 0 0
26-11-2019 18.5 (16:10) 12.4 (00:00) 15.4 8.33 (22:00) 5 (22:20) 4.6 0 0.2 1.2 3.2
25-11-2019 18.4 (14:20) 11.2 (00:00) 14.8 10 (14:30) 6.11 (14:00) 8.2 3 5 0.2 0
24-11-2019 14.5 (15:40) 6.2 (00:00) 10.3 8.89 (15:40) 5.28 (15:40) 0 0 0 0 0
23-11-2019 14.1 (15:20) 8.1 (00:00) 11.1 13.61 (01:00) 7.78 (01:10) 5 5 0 0 0
22-11-2019 15.8 (16:40) 9.8 (00:00) 12.8 20 (13:30) 11.67 (13:30) 17.6 0.2 10.2 6 1.2
21-11-2019 13.2 (16:40) 8.2 (00:00) 10.7 4.17 (23:00) 2.78 (22:50) 11.8 0.2 11.6 0 0
20-11-2019 9.8 (18:30) 5.3 (00:00) 7.6 6.67 (17:50) 4.72 (17:50) 4.2 0 2.4 1 0.8
19-11-2019 11.5 (14:10) 2.4 (00:00) 7 3.06 (02:30) 2.22 (02:30) -- 0 0 -- 0
18-11-2019 14.5 (15:50) 4.5 (00:00) 9.5 9.44 (02:40) 6.11 (02:20) 0.2 0 0.2 0 0
17-11-2019 12.3 (21:30) 5.5 (00:00) 8.9 11.94 (22:00) 7.22 (21:40) 11.2 0 5.4 1.4 4.4
16-11-2019 13.5 (16:10) -0.8 (-00:0) 6.3 9.44 (15:30) 5 (16:30) 0 0 0 0 0

Gráficas

Temp. máximas Temp. mínimas Temp. medias Precipitaciones Rachas de viento máximas Velocidades máximas media en intervalos de 10 minutos

Datos horarios

Fecha y hora oficial Temperatura (ºC) Velocidad del viento (km/h) Dirección del viento Racha (km/h) Dirección de racha Precipitación (mm) Presión (hPa) Tendencia (hPa) Humedad (%)
2019-12-15 23:00:00 12.7 18 Sudoeste 31 Sur 0 -- -- 74
2019-12-15 22:00:00 12.6 21 Sur 29 Sur 0 -- -- 75
2019-12-15 21:00:00 13 16 Sudoeste 27 Sur 0 -- -- 74
2019-12-15 20:00:00 13.3 20 Sudoeste 30 Sudoeste 0 -- -- 72
2019-12-15 19:00:00 13.3 18 Sur 28 Sudoeste 0 -- -- 72
2019-12-15 18:00:00 13.7 13 Sur 21 Sur 0 -- -- 71
2019-12-15 17:00:00 14.4 14 Sudoeste 24 Sudoeste 0 -- -- 66
2019-12-15 16:00:00 14.9 17 Sudoeste 24 Sudoeste 0 -- -- 63
2019-12-15 15:00:00 14.7 11 Sudoeste 19 Sudoeste 0 -- -- 65
2019-12-15 14:00:00 15.4 12 Sudoeste 22 Sudoeste 0 -- -- 63
2019-12-15 13:00:00 14.7 13 Sudoeste 23 Sudoeste 0 -- -- 63
2019-12-15 12:00:00 14.2 11 Sudoeste 23 Sudoeste 0 -- -- 65
2019-12-15 11:00:00 13.3 11 Sudoeste 18 Sudoeste 0 -- -- 72
2019-12-15 10:00:00 12.7 7 Oeste 16 Oeste 0 -- -- 73
2019-12-15 09:00:00 12.1 6 Oeste 14 Sudoeste 0 -- -- 76
2019-12-15 08:00:00 11.8 5 Sudoeste 9 Oeste 0 -- -- 81
2019-12-15 07:00:00 11.9 5 Oeste 13 Oeste 0 -- -- 86
2019-12-15 06:00:00 11.9 8 Oeste 14 Oeste 0 -- -- 86
2019-12-15 05:00:00 12.1 8 Oeste 15 Noroeste 0 -- -- 84
2019-12-15 04:00:00 12.3 7 Oeste 14 Oeste 0 -- -- 83
2019-12-15 03:00:00 12.3 8 Oeste 18 Oeste 0 -- -- 84
2019-12-15 02:00:00 12.5 10 Oeste 19 Oeste 0 -- -- 83
2019-12-15 01:00:00 12.6 9 Oeste 20 Oeste 0 -- -- 81
2019-12-15 00:00:00 12.8 12 Oeste 20 Oeste 0 -- -- 80
2019-12-14 23:00:00 12.8 8 Noroeste 19 Oeste 0 -- -- 80
2019-12-14 22:00:00 12.8 7 Oeste 16 Oeste 0 -- -- 80
2019-12-14 21:00:00 12.7 8 Oeste 15 Oeste 0 -- -- 80
2019-12-14 20:00:00 12.5 5 Oeste 12 Oeste 0 -- -- 81
2019-12-14 19:00:00 12.6 5 Noroeste 13 Noroeste 0 -- -- 82
2019-12-14 18:00:00 13 10 Noroeste 20 Noroeste 0 -- -- 80
2019-12-14 17:00:00 13.6 12 Noroeste 21 Noroeste 0 -- -- 77
2019-12-14 16:00:00 13.8 12 Noroeste 24 Noroeste 0 -- -- 76
2019-12-14 15:00:00 13.9 13 Noroeste 28 Noroeste 0 -- -- 78
2019-12-14 14:00:00 13.7 15 Noroeste 28 Oeste 0 -- -- 79
2019-12-14 13:00:00 13.6 17 Noroeste 27 Noroeste 0 -- -- 80
2019-12-14 12:00:00 12.8 15 Noroeste 25 Noroeste 0 -- -- 85
2019-12-14 11:00:00 11.9 12 Noroeste 24 Oeste 0 -- -- 91
2019-12-14 10:00:00 11.3 13 Noroeste 24 Oeste 0 -- -- 90
2019-12-14 09:00:00 11.1 13 Noroeste 23 Noroeste 0 -- -- 88
2019-12-14 08:00:00 10.9 12 Noroeste 24 Oeste 0 -- -- 91
2019-12-14 07:00:00 11.1 13 Oeste 26 Noroeste 0 -- -- 90
2019-12-14 06:00:00 11.1 15 Noroeste 27 Noroeste 0 -- -- 92
2019-12-14 05:00:00 11.3 13 Noroeste 23 Noroeste 0 -- -- 93
2019-12-14 04:00:00 11.3 12 Noroeste 25 Oeste 0 -- -- 93
2019-12-14 03:00:00 11.4 16 Noroeste 27 Noroeste 0 -- -- 94
2019-12-14 02:00:00 11.5 13 Noroeste 28 Noroeste 0 -- -- 94
2019-12-14 01:00:00 11.4 12 Noroeste 23 Oeste 0 -- -- 95
2019-12-14 00:00:00 11.4 11 Noroeste 34 Noroeste 0 -- -- 93
2019-12-13 23:00:00 11.9 18 Noroeste 32 Noroeste 0 -- -- 93
2019-12-13 22:00:00 11.6 15 Noroeste 26 Noroeste 0 -- -- 92
2019-12-13 21:00:00 12.1 11 Oeste 26 Oeste 0 -- -- 88
2019-12-13 20:00:00 13.1 14 Noroeste 27 Oeste 0 -- -- 85
2019-12-13 19:00:00 14 14 Noroeste 31 Oeste 0 -- -- 81
2019-12-13 18:00:00 15.1 13 Noroeste 29 Noroeste 0 -- -- 75
2019-12-13 17:00:00 16.2 15 Noroeste 38 Noroeste 0 -- -- 70
2019-12-13 16:00:00 16.5 22 Noroeste 37 Noroeste 0 -- -- 67
2019-12-13 15:00:00 16.5 22 Noroeste 40 Noroeste 0 -- -- 72
2019-12-13 14:00:00 16.2 21 Noroeste 35 Noroeste 0 -- -- 75
2019-12-13 13:00:00 14.8 22 Noroeste 32 Noroeste 0 -- -- 81
2019-12-13 12:00:00 14.5 22 Noroeste 42 Norte 0 -- -- 84
2019-12-13 11:00:00 13.7 27 Noroeste 44 Noroeste 0 -- -- 87
2019-12-13 10:00:00 12.2 23 Noroeste 40 Noroeste 0 -- -- 91
2019-12-13 09:00:00 11.4 19 Noroeste 33 Noroeste 0 -- -- 92
2019-12-13 08:00:00 11.2 22 Noroeste 42 Noroeste 0 -- -- 92
2019-12-13 07:00:00 11.6 26 Noroeste 40 Noroeste 0 -- -- 92
2019-12-13 06:00:00 12.1 28 Noroeste 47 Noroeste 0 -- -- 91
2019-12-13 05:00:00 12.6 29 Noroeste 52 Noroeste 0 -- -- 91
2019-12-13 04:00:00 12.8 31 Noroeste 49 Noroeste 0 -- -- 92
2019-12-13 03:00:00 12.8 27 Noroeste 46 Noroeste 0 -- -- 93
2019-12-13 02:00:00 12.7 26 Noroeste 42 Oeste 0 -- -- 93
2019-12-13 01:00:00 12.4 25 Noroeste 45 Noroeste 0 -- -- 94
2019-12-13 00:00:00 12.2 27 Noroeste 45 Oeste 0 -- -- 94
2019-12-12 23:00:00 11.9 23 Noroeste 45 Oeste 0 -- -- 94
2019-12-12 22:00:00 11.4 23 Noroeste 49 Noroeste 0 -- -- 95
2019-12-12 21:00:00 11 27 Noroeste 47 Oeste 0 -- -- 95
2019-12-12 20:00:00 10.7 24 Noroeste 46 Oeste 0 -- -- 94
2019-12-12 19:00:00 10.9 26 Noroeste 43 Oeste 0 -- -- 90
2019-12-12 18:00:00 11.1 24 Noroeste 38 Oeste 0 -- -- 87
2019-12-12 17:00:00 11.3 18 Noroeste 45 Noroeste 0 -- -- 84
2019-12-12 16:00:00 11.7 23 Noroeste 41 Noroeste 0 -- -- 81
2019-12-12 15:00:00 11.3 20 Noroeste 37 Noroeste 0 -- -- 83
2019-12-12 14:00:00 10.9 24 Noroeste 42 Noroeste 0 -- -- 82
2019-12-12 13:00:00 10.3 20 Noroeste 34 Noroeste 0 -- -- 85
2019-12-12 12:00:00 9.2 19 Oeste 29 Oeste 0 -- -- 89
2019-12-12 11:00:00 7.8 15 Noroeste 28 Noroeste 0 -- -- 93
2019-12-12 10:00:00 7.2 14 Oeste 27 Oeste 0 -- -- 93
2019-12-12 09:00:00 6.1 15 Noroeste 31 Oeste 0 -- -- 93
2019-12-12 08:00:00 6.4 14 Noroeste 23 Noroeste 0 -- -- 87
2019-12-12 07:00:00 6 14 Oeste 28 Oeste 0 -- -- 86
2019-12-12 06:00:00 6.1 11 Noroeste 21 Noroeste 0 -- -- 83
2019-12-12 05:00:00 6.6 12 Noroeste 21 Noroeste 0 -- -- 79
2019-12-12 04:00:00 6.5 7 Noroeste 19 Noroeste 0 -- -- 79
2019-12-12 03:00:00 6.6 14 Noroeste 22 Noroeste 0 -- -- 77
2019-12-12 02:00:00 6.9 9 Oeste 30 Noroeste 0 -- -- 73
2019-12-12 01:00:00 6.6 17 Noroeste 24 Noroeste 0 -- -- 74
2019-12-12 00:00:00 7.3 15 Noroeste 25 Noroeste 0 -- -- 71
2019-12-11 23:00:00 7.7 16 Noroeste 27 Noroeste 0 -- -- 69
2019-12-11 22:00:00 8.3 11 Oeste 27 Noroeste 0 -- -- 65
2019-12-11 21:00:00 8.8 9 Oeste 30 Noroeste 0 -- -- 63
2019-12-11 20:00:00 9.8 19 Noroeste 35 Noroeste 0 -- -- 59
2019-12-11 19:00:00 10.6 23 Noroeste 32 Noroeste 0 -- -- 57
2019-12-11 18:00:00 11.4 17 Noroeste 42 Noroeste 0 -- -- 60
2019-12-11 17:00:00 12.5 25 Noroeste 42 Noroeste 0 -- -- 60
2019-12-11 16:00:00 12.2 12 Noroeste 35 Noroeste 0 -- -- 72
2019-12-11 15:00:00 10.9 18 Noroeste 31 Noroeste 0 -- -- 86
2019-12-11 14:00:00 9.4 16 Noroeste 28 Oeste 0 -- -- 98
2019-12-11 13:00:00 8.4 10 Noroeste 18 Noroeste 0 -- -- 98
2019-12-11 12:00:00 8.1 8 Noroeste 15 Noroeste 0.4 -- -- 99
2019-12-11 11:00:00 7.6 9 Noroeste 19 Noroeste 0 -- -- 99
2019-12-11 10:00:00 7.5 7 Noroeste 14 Oeste 0 -- -- 99
2019-12-11 09:00:00 6.9 6 Noroeste 12 Noroeste 0 -- -- 99
2019-12-11 08:00:00 6.5 2 Noroeste 3 Noroeste 0 -- -- 99
2019-12-11 07:00:00 6.2 0 Calma 3 Sudoeste 0.2 -- -- 99
2019-12-11 06:00:00 6 3 Sudoeste 7 Norte 0 -- -- 98
2019-12-11 05:00:00 6 3 Nordeste 9 Sur 0 -- -- 98
2019-12-11 04:00:00 5.4 0 Calma 5 Norte 0 -- -- 98
2019-12-11 03:00:00 4.9 0 Calma 6 Sur 0 -- -- 97
2019-12-11 02:00:00 5.4 0 Calma 7 Norte 0 -- -- 97
2019-12-11 01:00:00 4.9 3 Norte 5 Sur 0 -- -- 96
2019-12-11 00:00:00 6.4 5 Sur 10 Sur 0 -- -- 95
2019-12-10 23:00:00 7.3 2 Noroeste 8 Noroeste 0 -- -- 95
2019-12-10 22:00:00 7.5 5 Noroeste 8 Noroeste 0 -- -- 94
2019-12-10 21:00:00 7.7 4 Noroeste 8 Noroeste 0 -- -- 92
2019-12-10 20:00:00 8.1 4 Noroeste -- -- 0 -- -- 90
2019-12-10 19:00:00 9.7 0 Calma 4 Noroeste 0 -- -- 86
2019-12-10 18:00:00 10.9 3 Noroeste 8 Norte 0 -- -- 80
2019-12-10 17:00:00 12.1 6 Noroeste 9 Noroeste 0 -- -- 74
2019-12-10 16:00:00 12.5 2 Este 6 Este 0 -- -- 72
2019-12-10 15:00:00 12.2 3 Nordeste 6 Este 0 -- -- 72
2019-12-10 14:00:00 11.9 2 Sudeste 8 Este 0 -- -- 73
2019-12-10 13:00:00 10.6 3 Nordeste 9 Norte 0 -- -- 78
2019-12-10 12:00:00 9.7 4 Nordeste 15 Sudeste 0 -- -- 83
2019-12-10 11:00:00 7.8 7 Sudeste 13 Sudeste 0 -- -- 91
2019-12-10 10:00:00 6.2 5 Sudeste 13 Sudeste 0 -- -- 97
2019-12-10 09:00:00 6.2 9 Sur 14 Sur 0 -- -- 97
2019-12-10 08:00:00 6.1 8 Sudeste 22 Sur 0 -- -- 97
2019-12-10 07:00:00 6.5 9 Sur 13 Sur 0 -- -- 95
2019-12-10 06:00:00 8.2 4 Este 7 Este 0 -- -- 94
2019-12-10 05:00:00 8.9 3 Sudeste 9 Sudeste 0 -- -- 93
2019-12-10 04:00:00 9.2 4 Sur 15 Este 0 -- -- 91
2019-12-10 03:00:00 9.6 8 Sudeste 11 Sudeste 0 -- -- 92
2019-12-10 02:00:00 9.5 7 Sudeste 11 Sur 0 -- -- 95
2019-12-10 01:00:00 8.4 5 Sur 8 Sur 0 -- -- 97
2019-12-10 00:00:00 8.4 3 Sur 5 Sur 0 -- -- 95
2019-12-09 23:00:00 9.1 0 Calma 8 Sur 0 -- -- 95
2019-12-09 22:00:00 9.1 4 Sur 6 Sur 0 -- -- 95
2019-12-09 21:00:00 9.2 5 Sur 7 Sudoeste 0 -- -- 94
2019-12-09 20:00:00 10.1 0 Calma 5 Nordeste 0 -- -- 90
2019-12-09 19:00:00 11.4 4 Nordeste 5 Nordeste 0 -- -- 87
2019-12-09 18:00:00 12 4 Noroeste 6 Noroeste 0 -- -- 85
2019-12-09 17:00:00 12.2 3 Norte 5 Noroeste 0 -- -- 84
2019-12-09 16:00:00 12.2 3 Norte 9 Noroeste 0 -- -- 84
2019-12-09 15:00:00 12.5 3 Nordeste 7 Sudeste 0 -- -- 83
2019-12-09 14:00:00 12.4 4 Este 11 Sudeste 0 -- -- 82
2019-12-09 13:00:00 12.4 6 Sur 12 Sudeste 0 -- -- 82
2019-12-09 12:00:00 11.8 3 Sur 7 Sudeste 0 -- -- 92
2019-12-09 11:00:00 11.2 0 Calma 5 Nordeste 0 -- -- 97
2019-12-09 10:00:00 10.8 0 Calma 5 Nordeste 0 -- -- 97
2019-12-09 09:00:00 10.7 3 Este 4 Este 0 -- -- 97
2019-12-09 08:00:00 10.9 2 Nordeste 5 Norte 0 -- -- 97
2019-12-09 07:00:00 11 4 Sur 9 Sudeste 0 -- -- 97
2019-12-09 06:00:00 11.2 5 Sudeste 13 Noroeste 0 -- -- 96
2019-12-09 05:00:00 11.4 7 Noroeste 18 Noroeste 0 -- -- 97
2019-12-09 04:00:00 11.4 10 Noroeste 17 Noroeste 0 -- -- 97
2019-12-09 03:00:00 10.6 3 Nordeste 5 Nordeste 0 -- -- 97
2019-12-09 02:00:00 10.5 3 Este 7 Sudeste 0 -- -- 96
2019-12-09 01:00:00 10.7 0 Calma 6 Noroeste 0 -- -- 95
2019-12-09 00:00:00 10.5 0 Calma 5 Noroeste 0 -- -- 95
2019-12-08 23:00:00 10.5 3 Noroeste 10 Noroeste 0 -- -- 94
2019-12-08 22:00:00 10.3 5 Noroeste 12 Noroeste 0 -- -- 96
2019-12-08 21:00:00 10.1 3 Norte 9 Noroeste 0 -- -- 95
2019-12-08 20:00:00 9.9 5 Noroeste 9 Noroeste 0 -- -- 96
2019-12-08 19:00:00 10 0 Calma 5 Noroeste 0.2 -- -- 95
2019-12-08 18:00:00 10.3 2 Norte 10 Norte 0.6 -- -- 93
2019-12-08 17:00:00 11.1 6 Norte 12 Noroeste 0 -- -- 88
2019-12-08 16:00:00 10.9 4 Noroeste 8 Noroeste 0 -- -- 90
2019-12-08 15:00:00 9.8 3 Noroeste 6 Norte 0 -- -- 98
2019-12-08 14:00:00 8.3 3 Nordeste 6 Este 0 -- -- 98
2019-12-08 13:00:00 7.9 3 Este 9 Este 0 -- -- 99
2019-12-08 12:00:00 7 6 Sudeste 10 Este 0 -- -- 99
2019-12-08 11:00:00 6.3 6 Este 10 Sudeste 0 -- -- 98
2019-12-08 10:00:00 6 5 Sudeste 10 Sur 0 -- -- 98
2019-12-08 09:00:00 5.7 6 Sur 12 Sur 0 -- -- 98
2019-12-08 08:00:00 5.3 8 Sur 12 Sur 0 -- -- 98
2019-12-08 07:00:00 4.8 4 Sudeste 9 Sudeste 0 -- -- 97
2019-12-08 06:00:00 4.8 2 Sudeste 5 Sur 0 -- -- 97
2019-12-08 05:00:00 5 3 Sur 9 Sudeste 0 -- -- 96
2019-12-08 04:00:00 5.2 6 Sudeste 15 Sur 0 -- -- 96
2019-12-08 03:00:00 6.4 10 Sur 13 Sur 0 -- -- 96
2019-12-08 02:00:00 6.5 4 Sur 12 Sur 0 -- -- 96
2019-12-08 01:00:00 6.5 7 Sur 10 Sur 0 -- -- 96
2019-12-08 00:00:00 5.8 4 Sur 5 Sudeste 0 -- -- 95
2019-12-07 23:00:00 7.1 3 Sudeste 11 Sur 0 -- -- 92
2019-12-07 22:00:00 8.2 9 Sur 12 Sur 0 -- -- 94
2019-12-07 21:00:00 8 0 Calma 5 Sudoeste 0 -- -- 88
2019-12-07 20:00:00 8.7 3 Sudoeste 7 Sudoeste 0 -- -- 88
2019-12-07 19:00:00 9.6 6 Sudoeste 8 Sur 0 -- -- 87
2019-12-07 18:00:00 12.2 5 Sur 7 Sur 0 -- -- 77
2019-12-07 17:00:00 15.1 4 Sudeste 6 Sudeste 0 -- -- 64
2019-12-07 16:00:00 15.3 0 Calma 8 Sur 0 -- -- 63
2019-12-07 15:00:00 14.7 3 Sur 11 Sudeste 0 -- -- 66
2019-12-07 14:00:00 14 5 Sudeste 13 Sudoeste 0 -- -- 70
2019-12-07 13:00:00 12.9 4 Este 10 Sudeste 0 -- -- 73
2019-12-07 12:00:00 11.7 5 Sudeste 16 Sur 0 -- -- 79
2019-12-07 11:00:00 10.1 12 Sur 18 Sudeste 0 -- -- 84
2019-12-07 10:00:00 8.7 8 Sur 13 Sudeste 0 -- -- 90
2019-12-07 09:00:00 5.2 4 Sudoeste 9 Sudeste 0 -- -- 97
2019-12-07 08:00:00 4.4 5 Sudeste 12 Sur 0 -- -- 94
2019-12-07 07:00:00 6.2 5 Sur 10 Sur 0 -- -- 93
2019-12-07 06:00:00 6.1 5 Sur 9 Sur 0 -- -- 93
2019-12-07 05:00:00 5.6 2 Este 6 Este 0 -- -- 92
2019-12-07 04:00:00 6.9 6 Sur 13 Sur 0 -- -- 89
2019-12-07 03:00:00 7 6 Sur 10 Sur 0 -- -- 90
2019-12-07 02:00:00 7.7 5 Sur 12 Sur 0 -- -- 89
2019-12-07 01:00:00 6.9 6 Sur 10 Sur 0 -- -- 89
2019-12-07 00:00:00 8.3 3 Sudeste 8 Sur 0 -- -- 86
2019-12-06 23:00:00 8.6 4 Sur 10 Sudeste 0 -- -- 86
2019-12-06 22:00:00 9.9 8 Sudeste 13 Sur 0 -- -- 81
2019-12-06 21:00:00 9.6 4 Sur 6 Este 0 -- -- 81
2019-12-06 20:00:00 10.5 3 Sudoeste 7 Sudeste 0 -- -- 76
2019-12-06 19:00:00 11.7 4 Sudeste 9 Sudeste 0 -- -- 74
2019-12-06 18:00:00 13.6 6 Sur 8 Sudeste 0 -- -- 70
2019-12-06 17:00:00 16.4 6 Sudeste 14 Sudeste 0 -- -- 57
2019-12-06 16:00:00 16.6 6 Este 17 Sudeste 0 -- -- 56
2019-12-06 15:00:00 16.3 11 Sudeste 19 Sudeste 0 -- -- 57
2019-12-06 14:00:00 15.7 10 Sudeste 22 Este 0 -- -- 60
2019-12-06 13:00:00 14.7 15 Este 25 Sudeste 0 -- -- 64
2019-12-06 12:00:00 13.7 18 Sudeste 25 Este 0 -- -- 67
2019-12-06 11:00:00 12.3 15 Este 22 Este 0 -- -- 74
2019-12-06 10:00:00 10.3 8 Sudeste 15 Sudeste 0 -- -- 83
2019-12-06 09:00:00 7.5 9 Sur 12 Sudeste 0 -- -- 93
2019-12-06 08:00:00 6.7 4 Sudeste 9 Sur 0 -- -- 92
2019-12-06 07:00:00 6.9 8 Sur 10 Sur 0 -- -- 92
2019-12-06 06:00:00 6.8 5 Sudeste 9 Sur 0 -- -- 92
2019-12-06 05:00:00 7.2 4 Sur 10 Sudeste 0 -- -- 92
2019-12-06 04:00:00 7.7 4 Oeste 15 Sur 0 -- -- 87
2019-12-06 03:00:00 8.6 11 Sur 15 Sudeste 0 -- -- 86
2019-12-06 02:00:00 8.8 6 Sudeste 14 Sudeste 0 -- -- 85
2019-12-06 01:00:00 9.2 9 Sudeste 13 Sudeste 0 -- -- 84
2019-12-06 00:00:00 9.4 5 Sur 12 Sudeste 0 -- -- 85
2019-12-05 23:00:00 9.4 7 Sudeste 9 Sudeste 0 -- -- 82
2019-12-05 22:00:00 9.5 5 Sudeste 13 Este 0 -- -- 84
2019-12-05 21:00:00 10.7 7 Sudeste 14 Sudeste 0 -- -- 78
2019-12-05 20:00:00 11.8 10 Este 27 Este 0 -- -- 74
2019-12-05 19:00:00 12.8 18 Este 29 Este 0 -- -- 70
2019-12-05 18:00:00 13.3 14 Este 26 Este 0 -- -- 68
2019-12-05 17:00:00 14.4 19 Este 31 Este 0 -- -- 60
2019-12-05 16:00:00 14.8 22 Este 33 Este 0 -- -- 60
2019-12-05 15:00:00 14.9 22 Sudeste 32 Este 0 -- -- 57
2019-12-05 14:00:00 15.4 19 Este 31 Este 0 -- -- 58
2019-12-05 13:00:00 14.8 15 Sudeste 34 Este 0 -- -- 59
2019-12-05 12:00:00 14 21 Este 31 Este 0 -- -- 64
2019-12-05 11:00:00 12.6 16 Sudeste 26 Sudeste 0 -- -- 71
2019-12-05 10:00:00 11.1 7 Sudeste 13 Sudeste 0 -- -- 75
2019-12-05 09:00:00 8.1 4 Sur 11 Sur 0 -- -- 88
2019-12-05 08:00:00 7.3 5 Sudeste 9 Sudeste 0 -- -- 92
2019-12-05 07:00:00 7 7 Sur 11 Sudeste 0 -- -- 96
2019-12-05 06:00:00 6.6 3 Oeste 5 Sudoeste 0 -- -- 96
2019-12-05 05:00:00 7.2 4 Sudoeste 6 Sudoeste 0 -- -- 96
2019-12-05 04:00:00 7.8 2 Sudeste 5 Sudoeste 0 -- -- 96
2019-12-05 03:00:00 7.5 0 Calma 4 Norte 0 -- -- 95
2019-12-05 02:00:00 8.1 0 Calma 4 Sudoeste 0 -- -- 93
2019-12-05 01:00:00 8.7 2 Noroeste 4 Sudoeste 0 -- -- 93
2019-12-05 00:00:00 9.2 3 Sudoeste 6 Oeste 0 -- -- 93
2019-12-04 23:00:00 10.2 0 Calma 4 Sur 0 -- -- 91
2019-12-04 22:00:00 10.3 4 Sur 9 Sur 0 -- -- 92
2019-12-04 21:00:00 10.6 0 Calma 9 Sur 0 -- -- 90
2019-12-04 20:00:00 10.6 2 Sudeste 4 Este 0.2 -- -- 93
2019-12-04 19:00:00 10.8 2 Sudoeste 4 Sudoeste 0.2 -- -- 89
2019-12-04 18:00:00 11.4 0 Calma 5 Este 0.6 -- -- 87
2019-12-04 17:00:00 12.5 0 Calma 5 Noroeste 0.4 -- -- 76
2019-12-04 16:00:00 13.1 0 Calma 8 Noroeste 0 -- -- 67
2019-12-04 15:00:00 13.6 4 Noroeste 9 Norte 0 -- -- 66
2019-12-04 14:00:00 12.2 2 Sudoeste 6 Noroeste 0 -- -- 71
2019-12-04 13:00:00 11.3 2 Este 5 Este 0 -- -- 75
2019-12-04 12:00:00 10.9 0 Calma 8 Nordeste 0 -- -- 76
2019-12-04 11:00:00 10.6 2 Nordeste 4 Nordeste 0 -- -- 78
2019-12-04 10:00:00 9 0 Calma 4 Norte 0 -- -- 87
2019-12-04 09:00:00 6.9 2 Nordeste 10 Sur 0 -- -- 90
2019-12-04 08:00:00 6.7 8 Sur 10 Sur 0 -- -- 93
2019-12-04 07:00:00 7.2 4 Sudeste 6 Sudeste 0 -- -- 92
2019-12-04 06:00:00 7.6 2 Noroeste 4 Oeste 0 -- -- 91
2019-12-04 05:00:00 7.9 5 Este 6 Sudeste 0 -- -- 90
2019-12-04 04:00:00 8.4 4 Sur 13 Sudeste 0 -- -- 83
2019-12-04 03:00:00 8.6 10 Sudeste 22 Sudeste 0 -- -- 82
2019-12-04 02:00:00 8.7 14 Sudeste 20 Sudeste 0 -- -- 82
2019-12-04 01:00:00 9.1 9 Sudeste 15 Sudeste 0 -- -- 84
2019-12-04 00:00:00 9.4 11 Sudeste 18 Sudeste 0 -- -- 84
2019-12-03 23:00:00 10.6 12 Sudeste 18 Sudeste 0 -- -- 77
2019-12-03 22:00:00 10.5 8 Sudeste 16 Este 0 -- -- 79
2019-12-03 21:00:00 10.9 12 Este 15 Este 0 -- -- 77
2019-12-03 20:00:00 11.3 12 Este 19 Este 0 -- -- 74
2019-12-03 19:00:00 11.6 12 Este 19 Sudeste 0 -- -- 73
2019-12-03 18:00:00 11.9 10 Sudeste 28 Sudeste 0 -- -- 70
2019-12-03 17:00:00 13.5 17 Sudeste 31 Sudeste 0 -- -- 63
2019-12-03 16:00:00 14.8 19 Sudeste 27 Sudeste 0 -- -- 59
2019-12-03 15:00:00 14.4 17 Sudeste 28 Este 0 -- -- 59
2019-12-03 14:00:00 14.3 15 Sudeste 30 Este 0 -- -- 60
2019-12-03 13:00:00 14 16 Este 26 Este 0 -- -- 63
2019-12-03 12:00:00 13.1 19 Sudeste 30 Sudeste 0 -- -- 64
2019-12-03 11:00:00 12.1 21 Sudeste 29 Este 0 -- -- 66
2019-12-03 10:00:00 10.7 14 Sudeste 23 Sudeste 0 -- -- 70
2019-12-03 09:00:00 8.7 14 Sudeste 25 Sudeste 0 -- -- 75
2019-12-03 08:00:00 8.9 17 Sudeste 34 Este 0 -- -- 73
2019-12-03 07:00:00 8.7 27 Este 36 Este 0 -- -- 75
2019-12-03 06:00:00 8.5 7 Sudeste 14 Sudeste 0 -- -- 75
2019-12-03 05:00:00 8.1 8 Este 18 Este 0 -- -- 77
2019-12-03 04:00:00 8.3 6 Sudeste 18 Sudeste 0 -- -- 77
2019-12-03 03:00:00 8.8 9 Sudeste 18 Este 0 -- -- 74
2019-12-03 02:00:00 9.2 7 Sudeste 20 Este 0 -- -- 74
2019-12-03 01:00:00 9.6 13 Este 24 Este 0 -- -- 74
2019-12-03 00:00:00 9.6 10 Este 19 Este 0 -- -- 75
2019-12-02 23:00:00 10.4 10 Este 21 Este 0 -- -- 72
2019-12-02 22:00:00 11 14 Este 35 Este 0 -- -- 70
2019-12-02 21:00:00 11.4 19 Este 30 Sudeste 0 -- -- 69
2019-12-02 20:00:00 11.4 10 Este 26 Este 0 -- -- 71
2019-12-02 19:00:00 11.9 19 Este 39 Este 0 -- -- 69
2019-12-02 18:00:00 12 25 Este 38 Este 0 -- -- 70
2019-12-02 17:00:00 12.1 26 Este 40 Este 0 -- -- 69
2019-12-02 16:00:00 12.2 31 Este 47 Este 0 -- -- 68
2019-12-02 15:00:00 13 25 Este 43 Sudeste 0 -- -- 65
2019-12-02 14:00:00 13 28 Sudeste 42 Sudeste 0 -- -- 64
2019-12-02 13:00:00 12.9 19 Sudeste 35 Este 0 -- -- 70
2019-12-02 12:00:00 12 19 Este 36 Este 0 -- -- 73
2019-12-02 11:00:00 12 25 Sudeste 37 Sudeste 0 -- -- 72
2019-12-02 10:00:00 10.7 18 Este 30 Este 0 -- -- 78
2019-12-02 09:00:00 9 14 Este 27 Este 0 -- -- 84
2019-12-02 08:00:00 9.4 18 Este 29 Este 0 -- -- 82
2019-12-02 07:00:00 9.3 9 Sudeste 22 Sudeste 0 -- -- 86
2019-12-02 06:00:00 9.3 8 Sudeste 21 Sudeste 0 -- -- 88
2019-12-02 05:00:00 9.4 14 Sudeste 25 Sudeste 0 -- -- 88
2019-12-02 04:00:00 8.8 10 Sudeste 17 Sudeste 0 -- -- 91
2019-12-02 03:00:00 8.6 8 Sudeste 18 Sudeste 0.2 -- -- 92
2019-12-02 02:00:00 8.4 3 Este 6 Este 0 -- -- 92
2019-12-02 01:00:00 8.8 3 Este 12 Sudeste 0 -- -- 90
2019-12-02 00:00:00 9.3 4 Sudeste 8 Sudeste 0 -- -- 93
2019-12-01 23:00:00 9.5 3 Sur 7 Sudeste 0 -- -- 94
2019-12-01 22:00:00 9.5 5 Sudeste 11 Sur 0 -- -- 93
2019-12-01 21:00:00 9.8 8 Sur 10 Sur 0 -- -- 94
2019-12-01 20:00:00 10.1 4 Sur 6 Sur 0.2 -- -- 90
2019-12-01 19:00:00 10.2 3 Nordeste 24 Noroeste 0 -- -- 87
2019-12-01 18:00:00 12.1 5 Norte 13 Oeste 0 -- -- 86
2019-12-01 17:00:00 13 4 Norte 17 Noroeste 0 -- -- 80
2019-12-01 16:00:00 13.2 4 Noroeste 17 Noroeste 0 -- -- 80
2019-12-01 15:00:00 12.4 10 Oeste 25 Oeste 0 -- -- 81
2019-12-01 14:00:00 12.4 15 Oeste 29 Oeste 0 -- -- 85
2019-12-01 13:00:00 11.6 14 Oeste 29 Oeste 0.6 -- -- 90
2019-12-01 12:00:00 11.5 5 Noroeste 28 Oeste 1.4 -- -- 90
2019-12-01 11:00:00 11.8 15 Oeste 36 Sudoeste 0 -- -- 86
2019-12-01 10:00:00 11.4 16 Oeste 27 Oeste 0 -- -- 85
2019-12-01 09:00:00 10.7 14 Oeste 30 Oeste 0 -- -- 87
2019-12-01 08:00:00 10.4 14 Oeste 30 Oeste 0 -- -- 87
2019-12-01 07:00:00 10.8 9 Oeste 31 Oeste 0 -- -- 85
2019-12-01 06:00:00 10 8 Noroeste 15 Oeste 0 -- -- 94
2019-12-01 05:00:00 10 5 Noroeste 24 Oeste 0 -- -- 95
2019-12-01 04:00:00 9.9 9 Noroeste 29 Oeste 0 -- -- 94
2019-12-01 03:00:00 10.3 10 Noroeste 21 Oeste 0 -- -- 95
2019-12-01 02:00:00 10.7 10 Noroeste 21 Noroeste 0 -- -- 95
2019-12-01 01:00:00 10.8 12 Noroeste 28 Noroeste 0 -- -- 94
2019-12-01 00:00:00 11.9 17 Noroeste 31 Noroeste 0 -- -- 93
2019-11-30 23:00:00 11.5 12 Oeste 24 Noroeste 0.2 -- -- 92
2019-11-30 22:00:00 11.7 13 Noroeste 22 Noroeste 0 -- -- 93
2019-11-30 21:00:00 11.7 14 Noroeste 46 Noroeste 1.4 -- -- 93
2019-11-30 20:00:00 15 12 Oeste 30 Oeste 0 -- -- 79
2019-11-30 19:00:00 15.5 14 Oeste 27 Oeste 0 -- -- 73
2019-11-30 18:00:00 15.6 14 Oeste 23 Oeste 0 -- -- 72
2019-11-30 17:00:00 15.4 13 Sudoeste 24 Oeste 0 -- -- 75
2019-11-30 16:00:00 16.3 13 Oeste 23 Oeste 0 -- -- 69
2019-11-30 15:00:00 16.2 13 Oeste 25 Oeste 0 -- -- 69
2019-11-30 14:00:00 15.9 14 Oeste 27 Oeste 0 -- -- 70
2019-11-30 13:00:00 15.9 15 Oeste 25 Oeste 0 -- -- 73
2019-11-30 12:00:00 15.1 3 Sudeste 11 Noroeste 0 -- -- 84
2019-11-30 11:00:00 13.5 4 Noroeste 13 Noroeste 0 -- -- 90
2019-11-30 10:00:00 13 10 Noroeste 18 Noroeste 0 -- -- 92
2019-11-30 09:00:00 11.9 4 Noroeste 9 Oeste 0 -- -- 96
2019-11-30 08:00:00 11.2 0 Calma 4 Norte 0 -- -- 94
2019-11-30 07:00:00 12.3 0 Calma 5 Oeste 0 -- -- 92
2019-11-30 06:00:00 13.6 4 Oeste 13 Noroeste 0 -- -- 89
2019-11-30 05:00:00 13.6 8 Noroeste 14 Noroeste 0 -- -- 88
2019-11-30 04:00:00 14.1 9 Noroeste 14 Noroeste 0 -- -- 86
2019-11-30 03:00:00 14.4 7 Oeste 16 Oeste 0 -- -- 87
2019-11-30 02:00:00 14.7 10 Oeste 18 Noroeste 0 -- -- 85
2019-11-30 01:00:00 14.9 8 Oeste 13 Oeste 0 -- -- 80
2019-11-30 00:00:00 14.9 6 Oeste 9 Oeste 0 -- -- 81
2019-11-29 23:00:00 13.4 3 Noroeste 5 Nordeste 0 -- -- 89
2019-11-29 22:00:00 14.1 2 Sudoeste 5 Sudoeste 0 -- -- 84
2019-11-29 21:00:00 15.2 0 Calma 11 Oeste 0 -- -- 81
2019-11-29 20:00:00 15.6 6 Noroeste 10 Noroeste 0 -- -- 82
2019-11-29 19:00:00 16 5 Oeste 14 Oeste 0 -- -- 80
2019-11-29 18:00:00 16.2 6 Oeste 12 Noroeste 0 -- -- 80
2019-11-29 17:00:00 16.7 8 Noroeste 14 Noroeste 0 -- -- 79
2019-11-29 16:00:00 17.1 9 Noroeste 20 Noroeste 0 -- -- 75
2019-11-29 15:00:00 17.4 10 Noroeste 22 Noroeste 0 -- -- 70
2019-11-29 14:00:00 16.8 11 Noroeste 21 Noroeste 0 -- -- 76
2019-11-29 13:00:00 16.6 12 Noroeste 23 Noroeste 0 -- -- 79
2019-11-29 12:00:00 16.1 12 Noroeste 21 Noroeste 0 -- -- 78
2019-11-29 11:00:00 15.4 9 Noroeste 17 Noroeste 0 -- -- 80
2019-11-29 10:00:00 14.2 9 Noroeste 13 Noroeste 0 -- -- 83
2019-11-29 09:00:00 13.2 3 Nordeste 7 Este 0 -- -- 88
2019-11-29 08:00:00 13.9 8 Noroeste 22 Oeste 0 -- -- 83
2019-11-29 07:00:00 14 11 Noroeste 25 Oeste 0 -- -- 84
2019-11-29 06:00:00 13.9 13 Oeste 21 Oeste 0 -- -- 82
2019-11-29 05:00:00 13.7 9 Noroeste 15 Noroeste 0 -- -- 84
2019-11-29 04:00:00 13.9 9 Noroeste 17 Oeste 0 -- -- 84
2019-11-29 03:00:00 14 8 Noroeste 21 Oeste 0 -- -- 85
2019-11-29 02:00:00 13.8 10 Oeste 20 Oeste 0 -- -- 85
2019-11-29 01:00:00 14.2 7 Noroeste 21 Noroeste 0 -- -- 82
2019-11-29 00:00:00 14.6 11 Oeste 25 Oeste 0 -- -- 80
2019-11-28 23:00:00 13.9 10 Oeste 18 Oeste 0 -- -- 82
2019-11-28 22:00:00 13 3 Sudeste 6 Este 0 -- -- 90
2019-11-28 21:00:00 13.3 0 Calma 4 Nordeste 0 -- -- 87
2019-11-28 20:00:00 13.4 2 Nordeste 13 Oeste 0 -- -- 84
2019-11-28 19:00:00 14 3 Oeste 5 Oeste 0 -- -- 82
2019-11-28 18:00:00 14.7 3 Noroeste 23 Noroeste 0 -- -- 81
2019-11-28 17:00:00 15.8 7 Oeste 22 Oeste 0 -- -- 72
2019-11-28 16:00:00 16 11 Noroeste 21 Noroeste 0 -- -- 72
2019-11-28 15:00:00 15.9 12 Noroeste 21 Oeste 0 -- -- 72
2019-11-28 14:00:00 16.3 6 Oeste 17 Oeste 0 -- -- 69
2019-11-28 13:00:00 15 9 Noroeste 18 Noroeste 0 -- -- 78
2019-11-28 12:00:00 14.4 10 Oeste 18 Oeste 0 -- -- 78
2019-11-28 11:00:00 13.3 3 Sudeste 6 Sudeste 0 -- -- 89
2019-11-28 10:00:00 11.6 0 Calma 6 Norte 0 -- -- 97
2019-11-28 09:00:00 10.8 4 Sur 9 Sur 0 -- -- 96
2019-11-28 08:00:00 10.5 2 Este 5 Este 0 -- -- 95
2019-11-28 07:00:00 10.7 3 Nordeste 17 Noroeste 0 -- -- 93
2019-11-28 06:00:00 11.1 9 Noroeste 22 Oeste 0 -- -- 93
2019-11-28 05:00:00 10.9 12 Noroeste 25 Oeste 0 -- -- 91
2019-11-28 04:00:00 11 8 Noroeste 18 Oeste 0 -- -- 89
2019-11-28 03:00:00 11.2 9 Oeste 16 Oeste 0 -- -- 88
2019-11-28 02:00:00 11.4 6 Oeste 20 Oeste 0 -- -- 87
2019-11-28 01:00:00 12 11 Oeste 21 Oeste 0 -- -- 85
2019-11-28 00:00:00 12.3 10 Oeste 22 Noroeste 0 -- -- 84
2019-11-27 23:00:00 13 10 Oeste 21 Oeste 0 -- -- 81
2019-11-27 22:00:00 13.4 12 Oeste 21 Oeste 0 -- -- 76
2019-11-27 21:00:00 13.5 7 Oeste 18 Oeste 0 -- -- 74
2019-11-27 20:00:00 14.3 12 Oeste 21 Oeste 0 -- -- 71
2019-11-27 19:00:00 14.3 10 Oeste 17 Oeste 0 -- -- 70
2019-11-27 18:00:00 14.4 10 Oeste 27 Oeste 0 -- -- 72
2019-11-27 17:00:00 15.7 15 Oeste 28 Oeste 0 -- -- 67
2019-11-27 16:00:00 15.5 15 Noroeste 33 Noroeste 0 -- -- 65
2019-11-27 15:00:00 15.8 19 Noroeste 30 Noroeste 0 -- -- 64
2019-11-27 14:00:00 15.8 18 Oeste 30 Oeste 0 -- -- 73
2019-11-27 06:00:00 -- -- -- -- -- -- -- -- --
2019-11-27 05:00:00 -- -- -- -- -- -- -- -- --
2019-11-27 04:00:00 -- -- -- -- -- -- -- -- --
2019-11-27 03:00:00 -- -- -- -- -- -- -- -- --
2019-11-27 02:00:00 13.7 22 Noroeste 40 Oeste 0 -- -- 87
2019-11-27 01:00:00 13.8 22 Oeste 39 Oeste 0.2 -- -- 89
2019-11-27 00:00:00 13.8 15 Oeste 28 Oeste 0 -- -- 94
2019-11-26 23:00:00 14.2 15 Oeste 29 Oeste 0 -- -- 94
2019-11-26 22:00:00 14.6 17 Oeste 30 Oeste 0 -- -- 95
2019-11-26 21:00:00 14.5 9 Oeste 21 Oeste 2 -- -- 95
2019-11-26 20:00:00 14.9 9 Oeste 26 Oeste 0.8 -- -- 92
2019-11-26 19:00:00 14.9 7 Oeste 15 Oeste 0.4 -- -- 91
2019-11-26 18:00:00 15.2 11 Oeste 24 Oeste 1 -- -- 89
2019-11-26 17:00:00 17.9 9 Oeste 26 Oeste 0 -- -- 70
2019-11-26 16:00:00 18.3 13 Oeste 23 Oeste 0 -- -- 74
2019-11-26 15:00:00 17.9 9 Oeste 27 Oeste 0 -- -- 77
2019-11-26 14:00:00 17.2 12 Oeste 23 Oeste 0.2 -- -- 83
2019-11-26 13:00:00 16.6 11 Oeste 22 Oeste 0 -- -- 86
2019-11-26 12:00:00 15.4 3 Nordeste 9 Noroeste 0 -- -- 92
2019-11-26 11:00:00 14.7 3 Noroeste 15 Sur 0 -- -- 95
2019-11-26 10:00:00 13.5 6 Sur 11 Sur 0 -- -- 96
2019-11-26 09:00:00 12.8 3 Este 12 Sudoeste 0.2 -- -- 95
2019-11-26 08:00:00 13.3 9 Sudoeste 13 Sudoeste 0 -- -- 89
2019-11-26 07:00:00 13.1 7 Sudoeste 13 Sudoeste 0 -- -- 92
2019-11-26 06:00:00 12.7 3 Sudoeste 5 Sudoeste 0 -- -- 95
2019-11-26 05:00:00 12.6 3 Este 10 Oeste 0 -- -- 94
2019-11-26 04:00:00 13.5 4 Oeste 19 Oeste 0 -- -- 91
2019-11-26 03:00:00 13.4 11 Oeste 22 Oeste 0 -- -- 91
2019-11-26 02:00:00 14.1 14 Oeste 26 Oeste 0 -- -- 88
2019-11-26 01:00:00 14.4 11 Oeste 23 Oeste 0 -- -- 87
2019-11-26 00:00:00 13.5 4 Nordeste 15 Noroeste 0 -- -- 89
2019-11-25 23:00:00 14.9 8 Noroeste 22 Noroeste 0 -- -- 83
2019-11-25 22:00:00 15.1 10 Oeste 19 Oeste 0 -- -- 84
2019-11-25 21:00:00 15.3 12 Oeste 20 Oeste 0 -- -- 82
2019-11-25 20:00:00 15.1 10 Oeste 20 Oeste 0 -- -- 83
2019-11-25 19:00:00 15 9 Oeste 16 Oeste 0 -- -- 84
2019-11-25 18:00:00 15.9 12 Oeste 21 Noroeste 0 -- -- 82
2019-11-25 17:00:00 16.8 13 Oeste 30 Noroeste 0 -- -- 77
2019-11-25 16:00:00 17.2 18 Noroeste 35 Noroeste 0 -- -- 76
2019-11-25 15:00:00 18.2 21 Noroeste 36 Noroeste 0.2 -- -- 73
2019-11-25 14:00:00 17.8 22 Noroeste 33 Noroeste 0 -- -- 76
2019-11-25 13:00:00 17.2 15 Noroeste 28 Noroeste 0 -- -- 87
2019-11-25 12:00:00 14.7 9 Noroeste 21 Noroeste 0 -- -- 98
2019-11-25 11:00:00 14.6 12 Noroeste 23 Noroeste 0.2 -- -- 98
2019-11-25 10:00:00 13.2 0 Calma 5 Nordeste 1.6 -- -- 98
2019-11-25 09:00:00 13.1 0 Calma 7 Este 1.2 -- -- 97
2019-11-25 08:00:00 12.3 5 Este 14 Noroeste 0.8 -- -- 97
2019-11-25 07:00:00 12.2 2 Nordeste 13 Noroeste 1.2 -- -- 96
2019-11-25 06:00:00 12.8 4 Noroeste 20 Oeste 1.8 -- -- 94
2019-11-25 05:00:00 13.1 6 Oeste 23 Sudoeste 0.4 -- -- 92
2019-11-25 04:00:00 12.2 5 Noroeste 19 Sur 0 -- -- 94
2019-11-25 03:00:00 11.8 5 Nordeste 12 Noroeste 0 -- -- 94
2019-11-25 02:00:00 11.2 3 Sudeste 12 Oeste 0.8 -- -- 94
2019-11-25 01:00:00 11.9 5 Oeste 30 Noroeste 0 -- -- 89
2019-11-25 00:00:00 13.6 13 Oeste 29 Oeste 0 -- -- 76
2019-11-24 23:00:00 13.3 11 Oeste 21 Oeste 0 -- -- 75
2019-11-24 22:00:00 13.3 10 Oeste 23 Oeste 0 -- -- 75
2019-11-24 21:00:00 13 12 Oeste 17 Oeste 0 -- -- 75
2019-11-24 20:00:00 12.5 6 Noroeste 14 Oeste 0 -- -- 78
2019-11-24 19:00:00 12.4 5 Oeste 14 Oeste 0 -- -- 77
2019-11-24 18:00:00 12.6 9 Noroeste 25 Noroeste 0 -- -- 76
2019-11-24 17:00:00 13.1 16 Noroeste 31 Noroeste 0 -- -- 73
2019-11-24 16:00:00 13.4 19 Noroeste 32 Noroeste 0 -- -- 74
2019-11-24 15:00:00 13.5 13 Noroeste 25 Noroeste 0 -- -- 74
2019-11-24 14:00:00 11.8 9 Noroeste 19 Noroeste 0 -- -- 80
2019-11-24 13:00:00 10.1 12 Noroeste 24 Noroeste 0 -- -- 86
2019-11-24 12:00:00 10.3 11 Noroeste 21 Noroeste 0 -- -- 84
2019-11-24 11:00:00 9.3 10 Oeste 21 Oeste 0 -- -- 88
2019-11-24 10:00:00 7.1 5 Nordeste 10 Nordeste 0 -- -- 92
2019-11-24 09:00:00 7 3 Noroeste 14 Noroeste 0 -- -- 90
2019-11-24 08:00:00 6.3 11 Noroeste 23 Oeste 0 -- -- 92
2019-11-24 07:00:00 6.3 10 Noroeste 23 Oeste 0 -- -- 93
2019-11-24 06:00:00 6.4 9 Noroeste 15 Oeste 0 -- -- 92
2019-11-24 05:00:00 6.8 11 Noroeste 19 Noroeste 0 -- -- 90
2019-11-24 04:00:00 7.1 12 Noroeste 22 Noroeste 0 -- -- 89
2019-11-24 03:00:00 7.3 7 Noroeste 21 Oeste 0 -- -- 88
2019-11-24 02:00:00 7.3 6 Noroeste 21 Noroeste 0 -- -- 88
2019-11-24 01:00:00 7.6 13 Noroeste 23 Noroeste 0 -- -- 87
2019-11-24 00:00:00 8.1 16 Noroeste 28 Oeste 0 -- -- 84
2019-11-23 23:00:00 8.3 15 Noroeste 25 Noroeste 0 -- -- 81
2019-11-23 22:00:00 9 12 Oeste 30 Noroeste 0 -- -- 78
2019-11-23 21:00:00 9.6 14 Oeste 27 Noroeste 0 -- -- 76
2019-11-23 20:00:00 10.7 15 Noroeste 31 Noroeste 0 -- -- 69
2019-11-23 19:00:00 11.1 13 Noroeste 26 Noroeste 0 -- -- 69
2019-11-23 18:00:00 12.2 18 Noroeste 38 Noroeste 0 -- -- 63
2019-11-23 17:00:00 13.1 18 Noroeste 36 Noroeste 0 -- -- 60
2019-11-23 16:00:00 13.4 21 Noroeste 43 Noroeste 0 -- -- 59
2019-11-23 15:00:00 13.5 22 Noroeste 40 Noroeste 0 -- -- 59
2019-11-23 14:00:00 12.9 24 Noroeste 39 Noroeste 0 -- -- 59
2019-11-23 13:00:00 12.9 26 Noroeste 43 Noroeste 0 -- -- 61
2019-11-23 12:00:00 12 23 Noroeste 39 Noroeste 0 -- -- 71
2019-11-23 11:00:00 10.9 23 Noroeste 44 Noroeste 0 -- -- 79
2019-11-23 10:00:00 9.7 27 Noroeste 42 Noroeste 0 -- -- 83
2019-11-23 09:00:00 8.6 18 Noroeste 32 Noroeste 0 -- -- 88
2019-11-23 08:00:00 8.4 13 Noroeste 32 Oeste 0 -- -- 88
2019-11-23 07:00:00 8.8 19 Noroeste 44 Oeste 0 -- -- 88
2019-11-23 06:00:00 9.1 26 Noroeste 39 Noroeste 0 -- -- 86
2019-11-23 05:00:00 9.3 20 Noroeste 34 Noroeste 0 -- -- 89
2019-11-23 04:00:00 9.9 24 Noroeste 39 Noroeste 0 -- -- 83
2019-11-23 03:00:00 10.2 21 Noroeste 39 Noroeste 0 -- -- 87
2019-11-23 02:00:00 10.6 21 Noroeste 43 Noroeste 2.2 -- -- 95
2019-11-23 01:00:00 10.9 28 Noroeste 49 Noroeste 2.8 -- -- 94
2019-11-23 00:00:00 11 24 Noroeste 47 Noroeste 1 -- -- 91
2019-11-22 23:00:00 11.5 22 Noroeste 40 Noroeste 0 -- -- 88
2019-11-22 22:00:00 11.3 23 Noroeste 42 Noroeste 0 -- -- 88
2019-11-22 21:00:00 12.1 25 Noroeste 47 Noroeste 0 -- -- 86
2019-11-22 20:00:00 12.9 19 Noroeste 37 Oeste 0.2 -- -- 87
2019-11-22 19:00:00 13.8 25 Noroeste 42 Noroeste 0 -- -- 77
2019-11-22 18:00:00 14.5 21 Noroeste 33 Oeste 0 -- -- 78
2019-11-22 17:00:00 15.6 21 Noroeste 40 Oeste 0 -- -- 84
2019-11-22 16:00:00 15.6 23 Oeste 39 Oeste 0 -- -- 87
2019-11-22 15:00:00 15.3 23 Oeste 70 Sudoeste 0.4 -- -- 87
2019-11-22 14:00:00 14 37 Sudoeste 72 Oeste 4.6 -- -- 92
2019-11-22 13:00:00 14.4 28 Oeste 62 Sudoeste 1 -- -- 88
2019-11-22 12:00:00 13.1 24 Sudoeste 43 Sudoeste 3.8 -- -- 94
2019-11-22 11:00:00 12.3 22 Sudoeste 37 Sudoeste 4.4 -- -- 93
2019-11-22 10:00:00 11.6 12 Sur 23 Sudoeste 1 -- -- 93
2019-11-22 09:00:00 11.7 16 Sur 28 Sudoeste 0.2 -- -- 90
2019-11-22 08:00:00 11.3 11 Sur 22 Sudoeste 0.6 -- -- 91
2019-11-22 07:00:00 11.5 17 Sudoeste 27 Sudoeste 0.2 -- -- 90
2019-11-22 06:00:00 11.5 15 Sudoeste 23 Sudoeste 0 -- -- 90
2019-11-22 05:00:00 12 13 Sudoeste 24 Sudoeste 0.2 -- -- 87
2019-11-22 04:00:00 12.3 10 Oeste 19 Oeste 0 -- -- 84
2019-11-22 03:00:00 12.2 9 Oeste 23 Oeste 0 -- -- 84
2019-11-22 02:00:00 12.3 12 Oeste 21 Oeste 0 -- -- 85
2019-11-22 01:00:00 10.8 5 Oeste 15 Sudoeste 0 -- -- 93
2019-11-22 00:00:00 9.8 3 Sur 8 Oeste 0 -- -- 95
2019-11-21 23:00:00 10 10 Sur 15 Sudoeste 0 -- -- 94
2019-11-21 22:00:00 10.3 3 Sudeste 9 Sudoeste 0 -- -- 94
2019-11-21 21:00:00 10.5 6 Sudoeste 9 Sudoeste 0 -- -- 95
2019-11-21 20:00:00 10.9 3 Sur 5 Sudeste 0 -- -- 92
2019-11-21 19:00:00 11.6 0 Calma 6 Sudeste 0 -- -- 91
2019-11-21 18:00:00 12.1 3 Sudeste 5 Sudeste 0 -- -- 88
2019-11-21 17:00:00 12.9 0 Calma 9 Noroeste 0 -- -- 82
2019-11-21 16:00:00 13 5 Noroeste 11 Oeste 0 -- -- 82
2019-11-21 15:00:00 12.8 5 Noroeste 11 Oeste 0 -- -- 84
2019-11-21 14:00:00 12.1 7 Oeste 12 Oeste 0 -- -- 88
2019-11-21 13:00:00 11.7 0 Calma 5 Sudoeste 0 -- -- 90
2019-11-21 12:00:00 10.9 4 Sudoeste 9 Sur 0.4 -- -- 97
2019-11-21 11:00:00 10.1 4 Sur 6 Sur 2.6 -- -- 98
2019-11-21 10:00:00 9.5 2 Nordeste 10 Nordeste 7.6 -- -- 97
2019-11-21 09:00:00 9.8 5 Norte 14 Oeste 0.8 -- -- 95
2019-11-21 08:00:00 8.8 0 Calma 5 Norte 0.2 -- -- 97
2019-11-21 07:00:00 8.8 2 Sur 5 Sudeste 0 -- -- 97
2019-11-21 06:00:00 8.8 0 Calma 8 Nordeste 0 -- -- 97
2019-11-21 05:00:00 9 5 Nordeste 8 Este 0 -- -- 97
2019-11-21 04:00:00 8.8 2 Nordeste 9 Este 0 -- -- 97
2019-11-21 03:00:00 8.6 4 Sudeste 9 Este 0 -- -- 97
2019-11-21 02:00:00 8.5 4 Sudeste 7 Sudeste 0.2 -- -- 97
2019-11-21 01:00:00 8.3 4 Este 7 Nordeste 0 -- -- 97
2019-11-21 00:00:00 8.7 3 Norte 5 Norte 0 -- -- 97
2019-11-20 23:00:00 8.6 2 Este 5 Nordeste 0.8 -- -- 96
2019-11-20 22:00:00 8.6 3 Oeste 8 Este 0 -- -- 96
2019-11-20 21:00:00 8.7 0 Calma 5 Sudoeste 0 -- -- 95
2019-11-20 20:00:00 8.8 0 Calma 4 Nordeste 0 -- -- 95
2019-11-20 19:00:00 9.2 3 Este 20 Sudoeste 0 -- -- 93
2019-11-20 18:00:00 9.6 14 Sudoeste 24 Sudoeste 0 -- -- 91
2019-11-20 17:00:00 9.2 13 Sur 20 Sur 0 -- -- 93
2019-11-20 16:00:00 8.8 8 Sur 14 Sur 0 -- -- 91
2019-11-20 15:00:00 8.6 12 Sur 19 Sudeste 0.4 -- -- 90
2019-11-20 14:00:00 8.8 12 Sur 18 Sur 0.4 -- -- 89
2019-11-20 13:00:00 8.6 10 Sudeste 16 Sur 0.2 -- -- 91
2019-11-20 12:00:00 8.7 8 Sudeste 18 Sur 0.2 -- -- 91
2019-11-20 11:00:00 7.9 11 Sur 18 Sur 0.6 -- -- 93
2019-11-20 10:00:00 7.1 8 Sudeste 10 Sudeste 1.4 -- -- 92
2019-11-20 09:00:00 7.6 8 Sur 17 Sur 0.2 -- -- 87
2019-11-20 08:00:00 5.8 4 Este 17 Sudeste 0 -- -- 94
2019-11-20 07:00:00 5.5 3 Este 8 Este 0 -- -- 95
2019-11-20 06:00:00 5.5 6 Este 11 Este 0 -- -- 94
2019-11-20 05:00:00 6.5 5 Sudeste 12 Este 0 -- -- 91
2019-11-20 04:00:00 7 3 Este 13 Sur 0 -- -- 88
2019-11-20 03:00:00 6.7 4 Sudeste 13 Sudeste 0 -- -- 92
2019-11-20 02:00:00 6.9 8 Sudeste 13 Sudeste 0 -- -- 93
2019-11-20 01:00:00 6.6 7 Este 10 Este 0 -- -- 93
2019-11-20 00:00:00 7.1 4 Sur 6 Sur 0 -- -- 94
2019-11-19 23:00:00 7.5 3 Sudeste 4 Sudeste 0 -- -- 94
2019-11-19 22:00:00 7.8 0 Calma 5 Sudeste 0 -- -- 92
2019-11-19 21:00:00 8.3 3 Sur 5 Sur 0 -- -- 90
2019-11-19 20:00:00 8.1 4 Sur 6 Sur 0 -- -- 90
2019-11-19 19:00:00 9 0 Calma 2 Sur 0 -- -- 85
2019-11-19 18:00:00 10.3 2 Nordeste 3 Este 0 -- -- 77
2019-11-19 17:00:00 11.2 0 Calma 4 Nordeste 0 -- -- 72
2019-11-19 16:00:00 11.2 2 Noroeste 7 Norte 0 -- -- 72
2019-11-19 15:00:00 11.1 4 Norte -- -- -- -- -- 72
2019-11-19 14:00:00 -- -- -- -- -- -- -- -- --
2019-11-19 13:00:00 10.4 2 Este 6 Sudeste 0 -- -- 76
2019-11-19 12:00:00 9.1 2 Este 6 Este 0 -- -- 84
2019-11-19 11:00:00 7.5 3 Este 6 Este 0 -- -- 95
2019-11-19 10:00:00 5.2 4 Este 5 Este 0 -- -- 98
2019-11-19 09:00:00 3 3 Este 5 Este 0 -- -- 98
2019-11-19 08:00:00 2.4 2 Sur 3 Sur 0 -- -- 97
2019-11-19 07:00:00 2.8 0 Calma 3 Sur 0 -- -- 97
2019-11-19 06:00:00 2.8 0 Calma 6 Sudeste 0 -- -- 97
2019-11-19 05:00:00 2.8 2 Sudoeste 10 Noroeste 0 -- -- 96
2019-11-19 04:00:00 4.4 4 Sudeste 9 Sudeste 0 -- -- 96
2019-11-19 03:00:00 3.6 0 Calma 11 Este 0 -- -- 95
2019-11-19 02:00:00 4.6 5 Sudeste 10 Sur 0 -- -- 93
2019-11-19 01:00:00 5 6 Sur 9 Sur 0 -- -- 93
2019-11-19 00:00:00 4.5 2 Sur 4 Sudeste 0 -- -- 93
2019-11-18 23:00:00 5.2 0 Calma 4 Noroeste 0 -- -- 90
2019-11-18 22:00:00 5.6 2 Nordeste 4 Oeste 0 -- -- 88
2019-11-18 21:00:00 7.4 4 Este 15 Noroeste 0 -- -- 80
2019-11-18 20:00:00 10.8 10 Oeste 16 Oeste 0 -- -- 67
2019-11-18 19:00:00 9.9 7 Sudoeste 10 Sudoeste 0 -- -- 70
2019-11-18 18:00:00 12.2 7 Oeste 15 Noroeste 0 -- -- 59
2019-11-18 17:00:00 14.2 11 Noroeste 19 Noroeste 0 -- -- 52
2019-11-18 16:00:00 14.4 11 Oeste 18 Oeste 0 -- -- 55
2019-11-18 15:00:00 13.9 9 Oeste 17 Noroeste 0 -- -- 58
2019-11-18 14:00:00 12.9 10 Noroeste 19 Noroeste 0 -- -- 64
2019-11-18 13:00:00 11.7 12 Noroeste 22 Noroeste 0 -- -- 71
2019-11-18 12:00:00 10.9 8 Noroeste 17 Noroeste 0.2 -- -- 75
2019-11-18 11:00:00 10.2 2 Este 10 Sudeste 0 -- -- 77
2019-11-18 10:00:00 8.6 2 Sudeste 15 Noroeste 0 -- -- 80
2019-11-18 09:00:00 6.7 8 Noroeste 19 Noroeste 0 -- -- 84
2019-11-18 08:00:00 6 11 Oeste 17 Oeste 0 -- -- 85
2019-11-18 07:00:00 6 9 Noroeste 22 Oeste 0 -- -- 87
2019-11-18 06:00:00 6.1 14 Noroeste 26 Noroeste 0 -- -- 87
2019-11-18 05:00:00 6.6 16 Noroeste 29 Oeste 0 -- -- 86
2019-11-18 04:00:00 6.7 11 Oeste 24 Noroeste 0 -- -- 86
2019-11-18 03:00:00 7.8 18 Noroeste 34 Noroeste 0 -- -- 84
2019-11-18 02:00:00 8.4 8 Noroeste 31 Norte 0 -- -- 87
2019-11-18 01:00:00 9.3 16 Noroeste 26 Noroeste 0 -- -- 91
2019-11-18 00:00:00 10.8 14 Noroeste 30 Noroeste 0 -- -- 91
2019-11-17 23:00:00 11.9 19 Noroeste 41 Noroeste 2 -- -- 95
2019-11-17 22:00:00 12.2 25 Noroeste 43 Noroeste 0.4 -- -- 96
2019-11-17 21:00:00 11.8 21 Noroeste 37 Noroeste 0.2 -- -- 98
2019-11-17 20:00:00 11.2 15 Noroeste 32 Noroeste 0.2 -- -- 99
2019-11-17 19:00:00 9.4 4 Este 6 Este 1.6 -- -- 97
2019-11-17 18:00:00 9.3 2 Este 6 Este 1 -- -- 97
2019-11-17 17:00:00 9.5 3 Este 5 Nordeste 0 -- -- 96
2019-11-17 16:00:00 9.5 3 Nordeste 8 Norte 0 -- -- 96
2019-11-17 15:00:00 9.4 3 Norte 6 Oeste 0 -- -- 95
2019-11-17 14:00:00 8.8 0 Calma 3 Norte 0.2 -- -- 95
2019-11-17 13:00:00 8.5 0 Calma 4 Nordeste 0.2 -- -- 95
2019-11-17 12:00:00 7.9 2 Nordeste 10 Oeste 0.4 -- -- 95
2019-11-17 11:00:00 7.3 0 Calma 10 Sudoeste 1.8 -- -- 95
2019-11-17 10:00:00 6.8 8 Sudoeste 14 Sudoeste 2.4 -- -- 95
2019-11-17 09:00:00 5.9 5 Sudeste 10 Sur 0.8 -- -- 93
2019-11-17 08:00:00 6.4 0 Calma 17 Noroeste 0 -- -- 90
2019-11-17 07:00:00 6.4 9 Oeste 18 Noroeste 0 -- -- 85
2019-11-17 06:00:00 6.3 10 Noroeste 18 Noroeste 0 -- -- 81
2019-11-17 05:00:00 6.1 10 Noroeste 22 Oeste 0 -- -- 80
2019-11-17 04:00:00 5.6 12 Oeste 22 Noroeste 0 -- -- 81
2019-11-17 03:00:00 5.6 11 Oeste 22 Oeste 0 -- -- 77
2019-11-17 02:00:00 6.2 13 Oeste 23 Oeste 0 -- -- 73
2019-11-17 01:00:00 7.1 13 Noroeste 26 Oeste 0 -- -- 67
2019-11-17 00:00:00 7.5 11 Oeste 20 Oeste 0 -- -- 65
2019-11-16 23:00:00 7.6 4 Noroeste 14 Oeste 0 -- -- 61
2019-11-16 22:00:00 7.5 2 Oeste 10 Noroeste 0 -- -- 60
2019-11-16 21:00:00 8.1 3 Oeste 10 Oeste 0 -- -- 57
2019-11-16 20:00:00 7.9 5 Oeste 11 Noroeste 0 -- -- 58
2019-11-16 19:00:00 8 5 Noroeste 13 Noroeste 0 -- -- 59
2019-11-16 18:00:00 10.4 7 Noroeste 24 Noroeste 0 -- -- 51
2019-11-16 17:00:00 12.9 15 Noroeste 29 Norte 0 -- -- 42
2019-11-16 16:00:00 13.3 15 Noroeste 34 Oeste 0 -- -- 42
2019-11-16 15:00:00 12.6 14 Noroeste 28 Noroeste 0 -- -- 47
2019-11-16 14:00:00 11.9 11 Noroeste 22 Noroeste 0 -- -- 48
2019-11-16 13:00:00 10.2 9 Noroeste 15 Noroeste 0 -- -- 56
2019-11-16 12:00:00 8.6 3 Noroeste 10 Noroeste 0 -- -- 66
2019-11-16 11:00:00 6 3 Nordeste 9 Noroeste 0 -- -- 74
2019-11-16 10:00:00 3.7 2 Este 4 Sudeste 0 -- -- 85
2019-11-16 09:00:00 0.1 3 Sudeste 6 Sur 0 -- -- 94
2019-11-16 08:00:00 -0.6 4 Sudeste 6 Este 0 -- -- 93
2019-11-16 07:00:00 -0.4 0 Calma 10 Sur 0 -- -- 89
2019-11-16 06:00:00 0.2 4 Sudeste 7 Noroeste 0 -- -- 84
2019-11-16 05:00:00 3.7 5 Oeste 21 Oeste 0 -- -- 76
2019-11-16 04:00:00 4.2 13 Oeste 22 Oeste 0 -- -- 74
2019-11-16 03:00:00 4.7 14 Oeste 24 Oeste 0 -- -- 71
2019-11-16 02:00:00 4.9 13 Oeste 21 Oeste 0 -- -- 70
2019-11-16 01:00:00 5.2 13 Oeste 22 Oeste 0 -- -- 68
2019-11-16 00:00:00 5.5 12 Noroeste 21 Noroeste 0 -- -- 66